Time;durP1;ratioP1;P1;durP2;ratioP2;P2;SDS_P1;SDS_P2;PMS_P1;PMS_P2;Temp;Humidity;BMP_temperature;BMP_pressure;BME280_temperature;BME280_humidity;BME280_pressure;Samples;Min_cycle;Max_cycle;Signal;HPM_P1;HPM_P2
2022/04/21 00:00:31;;;;;;;18.15;9.20;;;;;;;11.56;60.89;100872.88;5095724;28;20094;-62
2022/04/21 00:02:57;;;;;;;18.08;7.82;;;;;;;11.53;60.26;100862.50;5095579;28;20058;-62
2022/04/21 00:05:24;;;;;;;15.98;7.18;;;;;;;11.51;60.89;100862.53;5095403;28;20047;-62
2022/04/21 00:07:50;;;;;;;16.30;7.35;;;;;;;11.51;60.78;100869.47;5095200;28;20483;-62
2022/04/21 00:10:18;;;;;;;13.65;7.65;;;;;;;11.50;60.58;100863.41;5095230;28;20043;-61
2022/04/21 00:12:46;;;;;;;15.18;6.65;;;;;;;11.51;60.66;100869.47;5094586;28;20063;-62
2022/04/21 00:15:15;;;;;;;18.00;8.55;;;;;;;11.50;60.91;100863.41;5080235;28;20056;-62
2022/04/21 00:17:45;;;;;;;14.00;8.00;;;;;;;11.50;60.93;100859.94;5074941;28;20064;-62
2022/04/21 00:20:14;;;;;;;17.65;8.25;;;;;;;11.50;60.76;100862.53;5074567;28;20566;-61
2022/04/21 00:25:29;;;;;;;;;;;;;;;11.43;61.58;100868.66;5092340;28;20094;-62
2022/04/21 00:27:58;;;;;;;15.85;8.27;;;;;;;11.45;61.13;100870.38;5094889;28;19924;-62
2022/04/21 00:30:27;;;;;;;16.98;8.85;;;;;;;11.47;61.26;100862.56;5094793;28;20472;-61
2022/04/21 00:32:54;;;;;;;17.10;8.07;;;;;;;11.48;61.33;100869.50;5094470;28;20362;-62
2022/04/21 00:35:22;;;;;;;15.23;8.35;;;;;;;11.49;61.34;100863.41;5094309;28;20059;-62
2022/04/21 00:37:51;;;;;;;16.92;8.55;;;;;;;11.48;61.36;100864.28;5094829;28;20048;-62
2022/04/21 00:40:22;;;;;;;14.02;7.55;;;;;;;11.48;61.75;100865.16;5094769;28;20056;-62
2022/04/21 00:42:53;;;;;;;19.15;8.73;;;;;;;11.49;61.39;100860.81;5089255;28;20048;-62
2022/04/21 00:45:22;;;;;;;18.83;8.52;;;;;;;11.50;61.48;100862.53;5096792;28;20047;-62
2022/04/21 00:47:50;;;;;;;21.38;9.73;;;;;;;11.49;61.36;100859.09;5114860;28;20062;-62
2022/04/21 00:50:22;;;;;;;17.00;8.82;;;;;;;11.49;62.02;100860.81;5113953;28;20043;-62
2022/04/21 00:52:52;;;;;;;16.13;7.97;;;;;;;11.49;61.92;100855.63;5094448;28;20117;-62
2022/04/21 00:55:20;;;;;;;13.48;7.50;;;;;;;11.49;61.95;100856.50;5094232;28;20345;-62
2022/04/21 00:57:49;;;;;;;14.10;7.30;;;;;;;11.51;61.66;100853.88;5093043;28;20052;-62
2022/04/21 01:00:21;;;;;;;14.93;7.07;;;;;;;11.50;62.07;100857.34;5074344;28;20060;-62
2022/04/21 01:02:56;;;;;;;15.70;8.60;;;;;;;11.51;62.27;100851.28;5075841;28;20128;-62
2022/04/21 01:05:30;;;;;;;16.13;7.90;;;;;;;11.51;62.15;100854.75;5087668;28;20074;-62
2022/04/21 01:07:59;;;;;;;15.55;7.68;;;;;;;11.53;61.95;100857.31;5073852;28;20088;-62
2022/04/21 01:10:31;;;;;;;14.32;6.95;;;;;;;11.55;62.23;100860.75;5086783;28;20089;-62
2022/04/21 01:12:59;;;;;;;16.00;7.68;;;;;;;11.57;62.16;100854.66;5093594;28;20526;-61
2022/04/21 01:15:28;;;;;;;13.85;7.68;;;;;;;11.60;62.04;100858.97;5093920;28;20079;-62
2022/04/21 01:17:56;;;;;;;17.90;7.70;;;;;;;11.61;61.70;100852.91;5089828;28;20559;-60
2022/04/21 01:20:26;;;;;;;16.85;7.30;;;;;;;11.61;62.18;100855.50;5092918;28;20044;-57
2022/04/21 01:22:55;;;;;;;12.57;6.97;;;;;;;11.62;61.97;100852.03;5107319;28;20051;-60
2022/04/21 01:25:24;;;;;;;14.45;8.02;;;;;;;11.62;61.90;100852.88;5089218;28;20087;-59
2022/04/21 01:27:54;;;;;;;13.60;7.57;;;;;;;11.62;62.34;100857.22;5106031;28;20048;-60
2022/04/21 01:30:21;;;;;;;12.50;8.32;;;;;;;11.61;62.10;100850.31;5105406;28;20439;-59
2022/04/21 01:32:49;;;;;;;17.08;7.85;;;;;;;11.61;62.35;100855.50;5097693;28;20052;-57
2022/04/21 01:35:17;;;;;;;15.25;7.68;;;;;;;11.62;62.23;100858.09;5096287;28;20509;-58
2022/04/21 01:43:17;;;;;;;12.05;6.97;;;;;;;11.61;62.32;100856.34;5090620;28;20054;-58
2022/04/21 01:45:45;;;;;;;13.48;6.68;;;;;;;11.62;62.15;100859.81;5099316;28;20052;-59
2022/04/21 01:48:13;;;;;;;12.10;5.97;;;;;;;11.62;62.65;100846.84;5092468;28;20055;-59
2022/04/21 01:50:39;;;;;;;12.30;6.22;;;;;;;11.62;62.48;100846.84;5092807;28;20350;-59
2022/04/21 01:53:08;;;;;;;11.68;5.43;;;;;;;11.63;62.42;100848.56;5074293;28;20469;-58
2022/04/21 01:55:36;;;;;;;11.23;5.20;;;;;;;11.66;62.47;100849.38;5073135;28;20064;-59
2022/04/21 01:58:04;;;;;;;10.30;5.60;;;;;;;11.69;62.17;100853.69;5072934;28;20067;-59
2022/04/21 02:00:32;;;;;;;10.10;5.32;;;;;;;11.70;62.27;100847.59;5072567;28;20534;-59
2022/04/21 02:03:00;;;;;;;10.52;5.25;;;;;;;11.71;61.77;100844.13;5076155;28;20059;-59
2022/04/21 02:05:27;;;;;;;9.15;5.30;;;;;;;11.70;62.07;100852.81;5093261;28;20059;-59
2022/04/21 02:07:57;;;;;;;10.00;5.57;;;;;;;11.69;62.42;100844.16;5093368;28;20056;-59
2022/04/21 02:10:30;;;;;;;11.65;6.13;;;;;;;11.69;62.12;100843.28;5087432;28;20051;-59
2022/04/21 02:12:58;;;;;;;10.45;5.38;;;;;;;11.68;62.54;100851.97;5072878;28;20056;-58
2022/04/21 02:15:26;;;;;;;12.18;6.18;;;;;;;11.65;62.56;100857.19;5072984;28;20125;-58
2022/04/21 02:17:55;;;;;;;11.15;5.40;;;;;;;11.63;62.99;100843.34;5073041;28;20059;-58
2022/04/21 02:20:23;;;;;;;9.85;5.00;;;;;;;11.62;62.88;100852.03;5072891;28;20076;-59
2022/04/21 02:22:51;;;;;;;7.82;4.60;;;;;;;11.60;62.81;100843.41;5073007;28;20067;-58
2022/04/21 02:25:18;;;;;;;10.52;5.70;;;;;;;11.60;63.07;100851.19;5088901;28;20060;-59
2022/04/21 02:27:49;;;;;;;9.45;5.35;;;;;;;11.64;62.90;100855.47;5092592;28;20392;-58
2022/04/21 02:30:19;;;;;;;10.18;5.45;;;;;;;11.64;62.69;100855.47;5092837;28;20056;-58
2022/04/21 02:32:47;;;;;;;9.52;5.20;;;;;;;11.66;62.32;100853.72;5092743;28;20056;-59
2022/04/21 02:35:16;;;;;;;10.00;5.35;;;;;;;11.66;62.45;100849.38;5093048;28;20044;-59
2022/04/21 02:37:46;;;;;;;11.82;5.15;;;;;;;11.67;62.28;100851.09;5092955;28;20051;-59
2022/04/21 02:40:15;;;;;;;9.18;5.28;;;;;;;11.68;62.70;100854.56;5092939;28;20051;-59
2022/04/21 02:42:43;;;;;;;10.48;5.00;;;;;;;11.69;62.32;100845.88;5088026;28;20060;-59
2022/04/21 02:45:14;;;;;;;8.95;5.10;;;;;;;11.72;62.26;100857.97;5092240;28;20051;-59
2022/04/21 02:47:44;;;;;;;7.00;4.35;;;;;;;11.71;62.66;100859.72;5106627;28;20044;-58
2022/04/21 02:50:15;;;;;;;8.05;5.00;;;;;;;11.68;62.71;100855.41;5072787;28;20084;-58
2022/04/21 02:52:44;;;;;;;8.57;5.50;;;;;;;11.67;63.02;100860.63;5113403;28;20048;-59
2022/04/21 02:57:59;;;;;;;9.18;5.10;;;;;;;11.63;63.33;100866.72;5107764;28;20645;-58
2022/04/21 03:00:29;;;;;;;9.43;4.80;;;;;;;11.64;63.26;100871.03;5076434;28;20049;-59
2022/04/21 03:02:57;;;;;;;9.38;5.38;;;;;;;11.64;63.04;100871.03;5088803;28;20126;-59
2022/04/21 03:05:25;;;;;;;9.60;5.38;;;;;;;11.66;62.82;100874.47;5096508;28;20099;-59
2022/04/21 03:07:54;;;;;;;12.45;6.38;;;;;;;11.65;63.20;100862.38;5096596;28;20048;-58
2022/04/21 03:10:22;;;;;;;8.98;5.15;;;;;;;11.64;63.07;100865.84;5078298;28;20048;-59
2022/04/21 03:12:49;;;;;;;9.43;5.10;;;;;;;11.64;63.34;100860.66;5078764;28;20069;-59
2022/04/21 03:15:17;;;;;;;10.82;4.78;;;;;;;11.64;63.42;100860.66;5095905;28;20635;-58
2022/04/21 03:17:47;;;;;;;10.35;5.65;;;;;;;11.62;63.32;100860.69;5078778;28;20044;-59
2022/04/21 03:25:45;;;;;;;11.63;5.63;;;;;;;11.62;63.47;100862.41;5095218;28;20063;-59
2022/04/21 03:28:15;;;;;;;12.98;6.03;;;;;;;11.65;63.29;100867.56;5096208;28;20119;-59
2022/04/21 03:30:42;;;;;;;16.05;6.50;;;;;;;11.65;63.02;100867.56;5096070;28;20064;-59
2022/04/21 03:33:11;;;;;;;14.38;7.75;;;;;;;11.65;63.24;100872.75;5095952;28;20070;-59
2022/04/21 03:35:39;;;;;;;15.50;7.30;;;;;;;11.65;63.23;100865.84;5095813;28;20044;-59
2022/04/21 03:38:07;;;;;;;14.27;7.88;;;;;;;11.67;63.39;100860.63;5094318;28;20044;-57
2022/04/21 03:40:35;;;;;;;15.05;7.63;;;;;;;11.68;63.50;100873.59;5087614;28;20393;-59
2022/04/21 03:43:02;;;;;;;16.13;8.90;;;;;;;11.68;63.48;100868.41;5078211;28;20059;-58
2022/04/21 03:45:30;;;;;;;15.18;8.57;;;;;;;11.68;63.59;100867.53;5096725;28;20053;-59
2022/04/21 03:47:59;;;;;;;14.20;8.10;;;;;;;11.70;63.29;100868.38;5075713;28;20063;-59
2022/04/21 03:50:29;;;;;;;15.30;7.47;;;;;;;11.69;63.52;100869.25;5080358;28;20106;-58
2022/04/21 03:52:57;;;;;;;14.15;7.72;;;;;;;11.68;63.59;100872.72;5116529;28;20067;-59
2022/04/21 03:55:25;;;;;;;17.48;9.30;;;;;;;11.70;63.33;100873.56;5103756;28;20206;-59
2022/04/21 03:57:55;;;;;;;15.23;8.50;;;;;;;11.70;63.48;100876.16;5095599;28;20056;-59
2022/04/21 04:00:23;;;;;;;17.48;7.90;;;;;;;11.70;63.31;100877.03;5096044;28;20048;-59
2022/04/21 04:02:51;;;;;;;15.40;8.88;;;;;;;11.74;63.24;100877.00;5095722;28;20040;-59
2022/04/21 04:05:21;;;;;;;16.10;8.65;;;;;;;11.77;63.40;100872.63;5095618;28;20373;-59
2022/04/21 04:10:53;;;;;;;14.82;7.10;;;;;;;11.80;63.40;100872.63;5074385;28;20067;-59
2022/04/21 04:13:21;;;;;;;15.70;7.50;;;;;;;11.82;63.27;100868.28;5075455;28;20102;-59
2022/04/21 04:15:49;;;;;;;12.82;6.88;;;;;;;11.84;63.08;100871.72;5075000;28;20060;-58
2022/04/21 04:18:18;;;;;;;13.40;6.00;;;;;;;11.87;63.07;100874.28;5074889;28;20143;-59
2022/04/21 04:20:46;;;;;;;8.88;5.07;;;;;;;11.90;62.91;100874.25;5075399;28;20048;-59
2022/04/21 04:23:16;;;;;;;6.68;4.55;;;;;;;11.94;62.90;100880.25;5074994;28;20422;-58
2022/04/21 04:25:45;;;;;;;9.93;5.78;;;;;;;11.99;62.11;100884.56;5095057;28;20040;-59
2022/04/21 04:28:13;;;;;;;9.68;5.20;;;;;;;12.03;61.96;100884.50;5079790;28;20051;-59
2022/04/21 04:30:42;;;;;;;8.15;4.28;;;;;;;12.04;61.85;100883.63;5075221;28;20044;-59
2022/04/21 04:33:10;;;;;;;8.82;4.60;;;;;;;12.05;61.91;100882.75;5088302;28;20214;-59
2022/04/21 04:35:37;;;;;;;7.47;3.67;;;;;;;12.08;61.73;100880.13;5095218;28;20063;-59
2022/04/21 04:38:06;;;;;;;8.88;4.30;;;;;;;12.13;61.41;100886.13;5095137;28;20048;-59
2022/04/21 04:40:35;;;;;;;8.55;4.10;;;;;;;12.15;61.20;100884.34;5095274;28;20059;-59
2022/04/21 04:43:01;;;;;;;8.60;3.60;;;;;;;12.21;61.14;100885.13;5087754;28;20073;-59
2022/04/21 04:48:14;;;;;;;7.10;3.90;;;;;;;12.38;60.77;100891.84;5115105;28;20188;-60
2022/04/21 04:50:42;;;;;;;7.05;3.78;;;;;;;12.51;60.48;100878.69;5106339;28;20048;-59
2022/04/21 04:53:10;;;;;;;7.22;3.95;;;;;;;12.61;60.07;100889.81;5074557;28;20060;-59
2022/04/21 04:55:39;;;;;;;6.13;3.35;;;;;;;12.70;59.71;100883.63;5088520;28;20052;-59
2022/04/21 04:58:06;;;;;;;10.13;4.20;;;;;;;12.76;59.39;100883.53;5090986;28;20059;-59
2022/04/21 05:00:34;;;;;;;7.75;4.05;;;;;;;12.78;59.17;100877.41;5074420;28;20063;-60
2022/04/21 05:03:02;;;;;;;7.40;4.22;;;;;;;12.81;58.86;100887.78;5077640;28;20047;-59
2022/04/21 05:05:30;;;;;;;7.50;4.15;;;;;;;12.85;58.80;100888.59;5094700;28;20465;-59
2022/04/21 05:07:58;;;;;;;8.27;4.30;;;;;;;12.88;58.65;100888.53;5094716;28;20054;-59
2022/04/21 05:10:28;;;;;;;11.35;5.03;;;;;;;12.88;58.51;100878.13;5094665;28;20056;-59
2022/04/21 05:12:58;;;;;;;8.57;4.82;;;;;;;12.87;58.36;100881.63;5094062;28;20388;-59
2022/04/21 05:15:25;;;;;;;8.82;4.65;;;;;;;12.88;58.50;100885.94;5094432;28;20087;-59
2022/04/21 05:17:55;;;;;;;10.60;4.78;;;;;;;12.87;58.20;100889.44;5094348;28;20113;-60
2022/04/21 05:20:22;;;;;;;10.88;4.35;;;;;;;12.88;58.07;100888.53;5094450;28;20131;-58
2022/04/21 05:22:52;;;;;;;9.50;4.65;;;;;;;12.88;58.20;100893.75;5094156;28;20058;-59
2022/04/21 05:25:20;;;;;;;7.85;4.07;;;;;;;12.88;58.04;100893.75;5094247;28;20377;-59
2022/04/21 05:27:48;;;;;;;6.68;4.07;;;;;;;12.90;57.90;100891.97;5094032;28;20048;-59
2022/04/21 05:33:03;;;;;;;7.38;4.13;;;;;;;12.94;57.77;100894.50;5093639;28;20055;-59
2022/04/21 05:35:32;;;;;;;9.02;3.97;;;;;;;12.97;57.81;100888.41;5093593;28;20594;-59
2022/04/21 05:37:59;;;;;;;8.63;3.63;;;;;;;12.99;57.79;100891.84;5092572;28;20062;-59
2022/04/21 05:40:30;;;;;;;7.60;3.90;;;;;;;13.02;57.83;100889.22;5093859;28;20056;-59
2022/04/21 05:43:01;;;;;;;9.65;4.28;;;;;;;13.05;57.96;100891.75;5086757;28;20085;-59
2022/04/21 05:45:31;;;;;;;7.53;3.88;;;;;;;13.07;57.70;100892.59;5098159;28;20055;-59
2022/04/21 05:47:58;;;;;;;7.90;4.30;;;;;;;13.11;57.62;100886.47;5092607;28;20369;-59
2022/04/21 05:50:27;;;;;;;9.93;4.50;;;;;;;13.15;57.57;100882.91;5073560;28;20059;-59
2022/04/21 05:52:58;;;;;;;11.95;5.53;;;;;;;13.20;57.60;100881.13;5073317;28;20052;-58
2022/04/21 05:55:28;;;;;;;10.30;4.35;;;;;;;13.23;57.52;100881.06;5073373;28;20087;-58
2022/04/21 05:57:55;;;;;;;7.20;3.55;;;;;;;13.31;57.09;100872.28;5073305;28;20072;-59
2022/04/21 06:00:22;;;;;;;8.68;3.88;;;;;;;13.37;57.00;100873.03;5073492;28;20058;-59
2022/04/21 06:02:50;;;;;;;8.43;4.47;;;;;;;13.46;56.98;100872.00;5074681;28;20458;-59
2022/04/21 06:05:16;;;;;;;7.82;3.97;;;;;;;13.55;56.49;100884.88;5093250;28;20059;-58
2022/04/21 06:07:42;;;;;;;12.18;4.57;;;;;;;13.69;56.25;100880.28;5093591;28;20126;-58
2022/04/21 06:10:09;;;;;;;11.98;4.47;;;;;;;13.90;55.82;100872.03;5093148;28;20463;-59
2022/04/21 06:12:36;;;;;;;9.05;4.25;;;;;;;14.11;55.18;100880.34;5092999;28;20064;-59
2022/04/21 06:15:03;;;;;;;8.27;4.35;;;;;;;14.31;54.48;100874.69;5093331;28;20044;-59
2022/04/21 06:17:30;;;;;;;6.40;3.78;;;;;;;14.57;53.77;100884.56;5093323;28;20052;-59
2022/04/21 06:19:57;;;;;;;8.25;4.03;;;;;;;14.82;53.51;100888.38;5093225;28;20063;-59
2022/04/21 06:22:24;;;;;;;8.43;4.05;;;;;;;15.08;52.48;100891.19;5093451;28;20052;-59
2022/04/21 06:24:50;;;;;;;8.90;3.63;;;;;;;15.34;51.98;100889.72;5093425;28;20051;-59
2022/04/21 06:27:17;;;;;;;8.32;3.88;;;;;;;15.58;51.47;100886.50;5092862;28;20399;-58
2022/04/21 06:29:44;;;;;;;9.82;4.05;;;;;;;15.83;50.54;100873.63;5093218;28;20052;-59
2022/04/21 06:32:12;;;;;;;6.95;3.70;;;;;;;16.05;49.81;100879.97;5093061;28;20048;-59
2022/04/21 06:34:40;;;;;;;7.43;3.45;;;;;;;16.28;49.05;100883.69;5092406;28;20063;-59
2022/04/21 06:37:08;;;;;;;5.45;3.28;;;;;;;16.50;48.12;100878.66;5091185;28;20058;-59
2022/04/21 06:39:34;;;;;;;6.85;3.60;;;;;;;16.70;47.62;100876.34;5093048;28;20113;-59
2022/04/21 06:42:01;;;;;;;9.15;3.60;;;;;;;16.92;47.23;100877.38;5093035;28;20058;-59
2022/04/21 06:49:55;;;;;;;7.00;3.20;;;;;;;17.51;45.73;100861.41;5072652;28;20163;-59
2022/04/21 06:52:27;;;;;;;9.60;3.40;;;;;;;17.72;45.30;100853.75;5106017;28;20066;-60
2022/04/21 06:54:53;;;;;;;5.80;2.78;;;;;;;17.95;44.75;100848.53;5091032;28;20044;-60
2022/04/21 06:57:20;;;;;;;6.05;2.75;;;;;;;18.12;44.21;100859.25;5092321;28;20059;-61
2022/04/21 06:59:47;;;;;;;6.00;2.88;;;;;;;18.28;43.84;100860.41;5099318;28;20134;-59
2022/04/21 07:02:13;;;;;;;4.45;2.20;;;;;;;18.44;43.23;100854.56;5098720;28;20773;-62
2022/04/21 07:04:40;;;;;;;8.30;2.70;;;;;;;18.60;43.07;100855.66;5098809;28;20059;-63
2022/04/21 07:07:07;;;;;;;5.10;2.10;;;;;;;18.74;42.53;100861.28;5095354;28;20056;-61
2022/04/21 07:09:35;;;;;;;3.85;2.20;;;;;;;18.87;41.88;100857.22;5109665;28;20052;-59
2022/04/21 07:12:02;;;;;;;10.07;2.60;;;;;;;19.02;41.79;100850.50;5098919;28;20055;-61
2022/04/21 07:14:29;;;;;;;5.75;2.22;;;;;;;19.14;41.63;100857.84;5101259;28;20075;-61
2022/04/21 07:16:58;;;;;;;5.28;1.88;;;;;;;19.31;41.22;100849.28;5105585;28;20391;-62
2022/04/21 07:19:24;;;;;;;5.07;2.50;;;;;;;19.45;41.05;100851.31;5096163;28;20117;-63
2022/04/21 07:21:51;;;;;;;6.40;2.13;;;;;;;19.60;40.55;100849.81;5107241;28;20574;-64
2022/04/21 07:24:17;;;;;;;3.65;2.10;;;;;;;19.71;40.37;100850.19;5085303;28;20370;-64
2022/04/21 07:26:45;;;;;;;6.57;2.65;;;;;;;19.84;40.17;100846.13;5096913;28;20143;-61
2022/04/21 07:29:11;;;;;;;2.60;1.77;;;;;;;19.95;40.14;100850.91;5095810;28;20382;-60
2022/04/21 07:31:38;;;;;;;6.63;2.30;;;;;;;20.06;39.65;100854.75;5093984;28;20413;-60
2022/04/21 07:34:05;;;;;;;2.90;2.03;;;;;;;20.16;39.38;100856.03;5099088;28;20455;-60
2022/04/21 07:36:31;;;;;;;6.30;2.22;;;;;;;20.29;39.10;100855.47;5100645;28;20052;-61
2022/04/21 07:38:58;;;;;;;5.20;2.00;;;;;;;20.35;38.88;100850.78;5106325;28;20058;-63
2022/04/21 07:41:24;;;;;;;5.60;2.60;;;;;;;20.43;38.89;100853.09;5108556;28;20418;-62
2022/04/21 07:43:52;;;;;;;4.07;2.22;;;;;;;20.54;38.45;100840.25;5089641;28;20055;-61
2022/04/21 07:46:18;;;;;;;4.57;2.22;;;;;;;20.61;38.30;100852.22;5101211;28;20043;-61
2022/04/21 07:51:29;;;;;;;6.30;2.60;;;;;;;20.88;38.14;100841.28;5105313;28;20193;-61
2022/04/21 07:53:55;;;;;;;6.70;2.42;;;;;;;21.02;37.81;100847.56;5105069;28;20043;-61
2022/04/21 07:56:21;;;;;;;5.07;2.20;;;;;;;21.12;37.46;100834.78;5093737;28;20063;-60
2022/04/21 07:58:48;;;;;;;7.70;2.70;;;;;;;21.22;37.32;100833.38;5089979;28;20052;-61
2022/04/21 08:01:16;;;;;;;5.88;2.47;;;;;;;21.34;37.32;100832.81;5092217;28;20055;-60
2022/04/21 08:03:43;;;;;;;6.57;2.40;;;;;;;21.50;36.77;100837.28;5105328;28;20126;-60
2022/04/21 08:06:11;;;;;;;6.20;2.60;;;;;;;21.60;36.54;100827.94;5107715;28;20072;-62
2022/04/21 08:08:40;;;;;;;6.15;2.22;;;;;;;21.67;35.83;100824.06;5107064;28;20054;-62
2022/04/21 08:11:07;;;;;;;5.25;2.30;;;;;;;21.77;35.80;100825.25;5106260;28;20050;-64
2022/04/21 08:13:33;;;;;;;7.53;2.28;;;;;;;21.80;35.67;100824.25;5098764;28;20047;-64
2022/04/21 08:16:00;;;;;;;3.40;2.00;;;;;;;21.82;35.57;100822.38;5109109;28;20044;-63
2022/04/21 08:18:27;;;;;;;5.05;2.08;;;;;;;21.82;35.46;100814.47;5105631;28;20044;-63
2022/04/21 08:20:58;;;;;;;7.65;2.40;;;;;;;21.86;35.43;100814.25;5101633;28;20066;-65
2022/04/21 08:23:24;;;;;;;4.07;2.65;;;;;;;21.95;35.56;100826.94;5111745;28;20052;-62
2022/04/21 08:34:21;;;;;;;7.15;3.15;;;;;;;22.03;34.49;100822.13;5002245;28;20056;-60
2022/04/21 08:36:47;;;;;;;5.00;2.33;;;;;;;21.89;35.03;100829.91;5046741;28;20536;-61
2022/04/21 08:39:13;;;;;;;5.93;2.10;;;;;;;21.81;35.09;100832.09;5104103;28;20050;-63
2022/04/21 08:41:47;;;;;;;6.10;2.50;;;;;;;21.74;34.80;100825.44;5111117;28;20413;-62
2022/04/21 08:44:16;;;;;;;7.18;2.40;;;;;;;21.70;34.90;100821.25;5093237;28;20127;-62
2022/04/21 08:46:43;;;;;;;4.85;2.13;;;;;;;21.70;34.98;100814.19;5107550;28;20053;-62
2022/04/21 08:49:11;;;;;;;6.82;2.50;;;;;;;21.74;34.79;100815.72;5110400;28;20054;-62
2022/04/21 08:51:39;;;;;;;15.55;3.03;;;;;;;21.76;34.47;100810.38;5102872;28;20419;-63
2022/04/21 08:54:06;;;;;;;6.07;3.10;;;;;;;21.77;34.59;100814.72;5101075;28;20040;-61
2022/04/21 08:56:33;;;;;;;6.22;3.20;;;;;;;21.80;34.71;100816.34;5103205;28;20052;-61
2022/04/21 08:58:59;;;;;;;7.07;2.70;;;;;;;21.88;34.41;100816.81;5098095;28;20040;-60
2022/04/21 09:01:26;;;;;;;7.78;2.50;;;;;;;21.86;34.26;100816.88;5111114;28;20062;-60
2022/04/21 09:03:53;;;;;;;7.15;2.33;;;;;;;21.86;33.93;100827.44;5099208;28;20054;-59
2022/04/21 09:06:21;;;;;;;4.57;2.42;;;;;;;21.77;33.57;100825.25;5104509;28;20052;-61
2022/04/21 09:09:09;;;;;;;3.47;2.10;;;;;;;21.76;33.51;100826.19;5099485;28;20516;-62
2022/04/21 09:11:35;;;;;;;5.40;2.30;;;;;;;21.72;33.52;100832.56;5101750;28;20451;-62
2022/04/21 09:14:01;;;;;;;5.47;2.38;;;;;;;21.72;33.29;100827.28;5106689;28;20044;-62
2022/04/21 09:16:34;;;;;;;3.97;2.10;;;;;;;21.74;32.96;100826.28;5102738;28;20066;-62
2022/04/21 09:19:02;;;;;;;7.60;2.65;;;;;;;21.77;32.81;100827.91;5096580;28;20062;-61
2022/04/21 09:21:36;;;;;;;2.70;2.05;;;;;;;21.80;32.30;100829.53;5110376;28;20074;-64
2022/04/21 09:24:19;;;;;;;8.30;3.58;;;;;;;21.74;31.80;100826.28;5088099;28;20135;-63
2022/04/21 09:26:46;;;;;;;8.15;3.00;;;;;;;21.53;32.59;100824.78;5099493;28;20076;-61
2022/04/21 09:29:22;;;;;;;11.48;3.00;;;;;;;21.35;32.64;100839.78;5097302;28;20055;-64
2022/04/21 09:31:55;;;;;;;8.05;3.08;;;;;;;21.28;32.67;100827.81;5079098;28;20044;-63
2022/04/21 09:34:22;;;;;;;7.82;2.20;;;;;;;21.22;32.80;100820.19;5093843;28;20059;-63
2022/04/21 09:36:48;;;;;;;5.57;2.13;;;;;;;21.11;32.90;100825.16;5107208;28;20130;-63
2022/04/21 09:39:16;;;;;;;7.28;2.47;;;;;;;21.09;32.97;100832.28;5097197;28;20052;-63
2022/04/21 09:41:44;;;;;;;5.70;2.00;;;;;;;21.10;32.66;100820.81;5109605;28;20464;-63
2022/04/21 09:46:55;;;;;;;5.50;2.10;;;;;;;21.12;32.57;100824.22;5106615;28;20059;-63
2022/04/21 09:49:34;;;;;;;5.32;2.28;;;;;;;21.14;32.20;100829.44;5096942;28;20079;-64
2022/04/21 09:52:01;;;;;;;5.20;2.60;;;;;;;21.18;32.53;100828.34;5104880;28;20504;-63
2022/04/21 09:54:30;;;;;;;3.80;2.00;;;;;;;20.95;32.39;100829.50;5108136;28;20051;-64
2022/04/21 09:56:58;;;;;;;6.50;2.22;;;;;;;20.81;32.77;100824.91;5098949;28;20562;-62
2022/04/21 09:59:25;;;;;;;4.97;2.30;;;;;;;20.75;32.63;100822.56;5098384;28;20051;-63
2022/04/21 10:01:51;;;;;;;6.15;2.13;;;;;;;20.50;32.84;100822.91;5108527;28;20052;-64
2022/04/21 10:04:18;;;;;;;12.43;2.33;;;;;;;20.36;33.23;100836.69;5101901;28;20135;-64
2022/04/21 10:06:46;;;;;;;4.45;1.85;;;;;;;20.36;33.30;100831.44;5093675;28;20102;-64
2022/04/21 10:09:14;;;;;;;4.40;2.10;;;;;;;20.41;33.48;100828.63;5109266;28;20043;-65
2022/04/21 10:11:42;;;;;;;5.72;2.30;;;;;;;20.46;33.36;100826.63;5080638;28;20051;-64
2022/04/21 10:14:12;;;;;;;9.43;2.83;;;;;;;20.53;33.55;100828.03;5106002;28;20052;-65
2022/04/21 10:16:39;;;;;;;9.38;2.30;;;;;;;20.61;33.04;100825.88;5105328;28;20112;-64
2022/04/21 10:19:06;;;;;;;9.52;2.35;;;;;;;20.73;32.75;100820.00;5098126;28;20048;-64
2022/04/21 10:21:38;;;;;;;4.80;1.83;;;;;;;20.85;32.36;100830.88;5108377;28;20075;-64
2022/04/21 10:24:06;;;;;;;7.38;2.03;;;;;;;20.88;32.27;100818.41;5088352;28;20041;-63
2022/04/21 10:26:38;;;;;;;5.50;2.10;;;;;;;20.86;32.06;100822.06;5095042;28;20059;-62
2022/04/21 10:29:14;;;;;;;4.70;2.08;;;;;;;20.84;31.92;100826.56;5097164;28;20044;-61
2022/04/21 10:31:51;;;;;;;4.25;1.77;;;;;;;20.76;31.60;100819.00;5077940;28;20051;-62
2022/04/21 10:34:34;;;;;;;5.15;1.80;;;;;;;20.74;31.36;100815.59;5093186;28;20051;-62
2022/04/21 10:37:08;;;;;;;2.92;1.60;;;;;;;20.74;31.69;100811.16;5108039;28;20085;-61
2022/04/21 10:39:35;;;;;;;2.90;1.67;;;;;;;20.78;31.81;100820.63;5096767;28;20101;-62
2022/04/21 10:42:07;;;;;;;4.13;2.03;;;;;;;20.83;31.56;100822.22;5106108;28;20411;-63
2022/04/21 10:44:42;;;;;;;9.15;1.90;;;;;;;20.87;31.20;100818.50;5090335;28;20114;-61
2022/04/21 10:47:33;;;;;;;8.10;1.83;;;;;;;20.87;31.08;100821.13;5108947;28;20522;-63
2022/04/21 10:50:01;;;;;;;3.75;1.80;;;;;;;20.83;31.54;100819.56;5085774;28;20115;-62
2022/04/21 10:58:51;;;;;;;8.43;2.00;;;;;;;20.48;31.34;100814.22;5102917;28;20114;-65
2022/04/21 11:01:28;;;;;;;3.58;1.70;;;;;;;20.06;32.51;100828.44;5056493;28;20055;-65
2022/04/21 11:04:22;;;;;;;5.68;2.08;;;;;;;19.57;32.96;100813.16;5102751;28;20200;-65
2022/04/21 11:06:51;;;;;;;3.70;1.77;;;;;;;19.36;33.38;100815.78;5099413;28;20152;-63
2022/04/21 11:09:39;;;;;;;4.45;2.05;;;;;;;19.25;33.34;100828.53;5108646;28;20039;-60
2022/04/21 11:12:06;;;;;;;3.72;1.70;;;;;;;19.19;33.50;100819.09;5099037;28;20051;-59
2022/04/21 11:14:34;;;;;;;6.07;1.90;;;;;;;19.25;33.87;100825.91;5100293;28;20480;-60
2022/04/21 11:17:04;;;;;;;4.40;1.73;;;;;;;19.14;33.87;100826.31;5105884;28;20387;-60
2022/04/21 11:19:32;;;;;;;3.97;1.90;;;;;;;18.99;34.22;100820.88;5097167;28;20090;-61
2022/04/21 11:22:00;;;;;;;3.60;2.00;;;;;;;18.94;34.51;100817.56;5110090;28;20452;-62
2022/04/21 11:24:27;;;;;;;4.20;2.17;;;;;;;18.85;34.58;100819.66;5092314;28;20071;-60
2022/04/21 11:26:54;;;;;;;3.95;2.00;;;;;;;18.77;34.75;100819.13;5109967;28;20586;-59
2022/04/21 11:29:20;;;;;;;5.20;2.10;;;;;;;18.66;34.79;100820.47;5099252;28;20574;-62
2022/04/21 11:31:47;;;;;;;6.88;1.80;;;;;;;18.47;35.04;100817.69;5111253;28;20044;-61
2022/04/21 11:34:21;;;;;;;3.70;1.92;;;;;;;18.30;35.36;100831.47;5096265;28;20357;-62
2022/04/21 11:36:48;;;;;;;4.95;1.70;;;;;;;18.26;35.41;100830.75;5109460;28;20062;-60
2022/04/21 11:39:15;;;;;;;4.75;2.38;;;;;;;18.22;35.47;100820.44;5099750;28;20052;-60
2022/04/21 11:41:44;;;;;;;3.20;2.30;;;;;;;18.11;35.66;100820.81;5112386;28;20063;-60
2022/04/21 11:44:11;;;;;;;6.05;1.88;;;;;;;18.13;35.60;100821.59;5093381;28;20048;-59
2022/04/21 11:46:39;;;;;;;3.60;2.30;;;;;;;18.18;35.74;100817.03;5107607;28;20052;-61
2022/04/21 11:49:09;;;;;;;4.00;2.13;;;;;;;18.16;35.67;100813.63;5100514;28;20044;-60
2022/04/21 11:51:36;;;;;;;12.07;2.50;;;;;;;17.98;35.59;100814.31;5106079;28;20047;-61
2022/04/21 11:54:04;;;;;;;4.10;1.90;;;;;;;17.74;35.94;100807.38;5102588;28;20047;-61
2022/04/21 11:56:30;;;;;;;9.77;2.13;;;;;;;17.38;36.59;100812.97;5104877;28;20075;-59
2022/04/21 11:58:58;;;;;;;5.22;2.13;;;;;;;17.35;36.96;100834.03;5099300;28;20116;-59
2022/04/21 12:06:56;;;;;;;5.30;2.38;;;;;;;17.32;36.67;100811.44;5101808;28;20090;-63
2022/04/21 12:09:25;;;;;;;3.72;2.28;;;;;;;17.12;36.84;100819.09;5112651;28;20127;-62
2022/04/21 12:11:53;;;;;;;4.65;1.90;;;;;;;17.04;37.20;100834.22;5100574;28;20527;-62
2022/04/21 12:14:19;;;;;;;4.78;1.90;;;;;;;17.00;37.29;100832.59;5106758;28;20048;-62
2022/04/21 12:16:47;;;;;;;3.95;2.00;;;;;;;16.90;37.16;100832.06;5108261;28;20357;-62
2022/04/21 12:19:19;;;;;;;4.90;1.92;;;;;;;16.83;37.29;100820.06;5098690;28;20086;-63
2022/04/21 12:21:57;;;;;;;4.88;2.47;;;;;;;16.63;37.70;100832.91;5106904;28;20051;-64
2022/04/21 12:24:32;;;;;;;6.15;2.22;;;;;;;16.60;38.05;100839.09;5105708;28;20079;-63